Time;durP1;ratioP1;P1;durP2;ratioP2;P2;SDS_P1;SDS_P2;PMS_P1;PMS_P2;Temp;Humidity;BMP_temperature;BMP_pressure;BME280_temperature;BME280_humidity;BME280_pressure;Samples;Min_cycle;Max_cycle;Signal;HPM_P1;HPM_P2
2021/09/23 00:00:36;;;;;;;3.00;2.80;;;;;;;22.03;83.75;98309.91;4999101;28;20206;-65
2021/09/23 00:03:10;;;;;;;2.80;2.60;;;;;;;22.03;84.17;98315.91;4998105;28;20577;-65
2021/09/23 00:05:38;;;;;;;3.23;2.93;;;;;;;22.03;83.79;98312.47;4999957;28;20202;-66
2021/09/23 00:08:04;;;;;;;3.20;2.90;;;;;;;22.01;83.77;98319.22;4998608;28;20198;-65
2021/09/23 00:10:33;;;;;;;3.23;2.93;;;;;;;22.03;83.89;98309.91;4992612;28;20219;-66
2021/09/23 00:13:00;;;;;;;3.10;2.80;;;;;;;22.01;83.85;98311.53;4994152;28;20205;-66
2021/09/23 00:15:27;;;;;;;3.27;2.97;;;;;;;22.02;83.94;98309.03;4989209;28;20287;-65
2021/09/23 00:17:57;;;;;;;3.80;2.97;;;;;;;22.03;83.83;98309.91;4989321;28;20285;-65
2021/09/23 00:20:26;;;;;;;3.23;2.67;;;;;;;21.95;83.90;98301.06;4999165;28;20265;-65
2021/09/23 00:22:53;;;;;;;2.90;2.70;;;;;;;22.03;83.83;98307.34;4964810;28;20226;-66
2021/09/23 00:25:20;;;;;;;3.00;2.80;;;;;;;21.98;83.69;98299.50;4998434;28;20210;-65
2021/09/23 00:27:46;;;;;;;2.83;2.63;;;;;;;22.03;83.87;98305.69;4982978;28;20226;-64
2021/09/23 00:30:13;;;;;;;3.23;2.93;;;;;;;22.03;83.80;98305.69;4992384;28;20281;-65
2021/09/23 00:32:40;;;;;;;2.80;2.60;;;;;;;21.96;83.74;98301.13;4995014;28;20202;-65
2021/09/23 00:35:07;;;;;;;3.03;2.83;;;;;;;21.98;83.80;98306.28;4975154;28;20202;-64
2021/09/23 00:37:33;;;;;;;3.47;3.17;;;;;;;22.04;83.75;98314.22;4997964;28;20773;-66
2021/09/23 00:40:00;;;;;;;2.87;2.67;;;;;;;21.81;83.42;98274.91;4996788;28;20206;-65
2021/09/23 00:42:27;;;;;;;3.17;2.93;;;;;;;21.98;83.59;98296.94;4998633;28;20691;-66
2021/09/23 00:44:58;;;;;;;3.10;2.90;;;;;;;22.01;83.66;98297.06;4998901;28;20464;-65
2021/09/23 00:47:25;;;;;;;3.30;3.00;;;;;;;22.04;83.39;98303.97;4991830;28;20269;-65
2021/09/23 00:49:51;;;;;;;2.90;2.70;;;;;;;22.02;83.71;98303.06;4996330;28;20706;-66
2021/09/23 00:52:21;;;;;;;3.30;3.03;;;;;;;22.03;83.46;98308.25;4991669;28;20226;-66
2021/09/23 00:54:48;;;;;;;3.13;2.83;;;;;;;21.99;83.69;98301.22;4999858;28;20233;-65
2021/09/23 00:57:17;;;;;;;3.40;3.10;;;;;;;22.00;83.68;98297.88;4980166;28;20218;-66
2021/09/23 00:59:45;;;;;;;3.33;3.00;;;;;;;21.96;83.48;98293.44;4992937;28;20207;-64
2021/09/23 01:02:12;;;;;;;3.40;3.07;;;;;;;22.03;83.97;98305.69;4953493;28;20206;-66
2021/09/23 01:04:43;;;;;;;3.03;2.83;;;;;;;22.02;83.64;98306.47;4982078;28;20235;-67
2021/09/23 01:07:11;;;;;;;3.03;2.80;;;;;;;22.02;83.58;98306.47;4984060;28;20235;-66
2021/09/23 01:09:45;;;;;;;3.50;3.00;;;;;;;22.02;83.49;98303.91;4992547;28;20199;-66
2021/09/23 01:12:12;;;;;;;3.33;3.07;;;;;;;21.94;83.64;98287.41;4991444;28;20218;-65
2021/09/23 01:14:39;;;;;;;3.20;2.90;;;;;;;22.04;83.66;98309.97;4994486;28;20428;-65
2021/09/23 01:17:06;;;;;;;3.10;2.90;;;;;;;22.04;83.45;98306.53;5000518;28;20219;-66
2021/09/23 01:19:33;;;;;;;3.00;2.80;;;;;;;22.05;83.72;98305.75;4961572;28;20670;-67
2021/09/23 01:21:59;;;;;;;3.30;3.00;;;;;;;21.90;83.46;98271.88;4976961;28;20229;-65
2021/09/23 01:24:26;;;;;;;2.80;2.60;;;;;;;22.05;83.50;98295.50;4987113;28;20202;-66
2021/09/23 01:26:55;;;;;;;3.30;3.00;;;;;;;22.05;83.44;98295.50;4994112;28;20237;-65
2021/09/23 01:29:23;;;;;;;3.13;2.83;;;;;;;22.04;83.61;98289.50;4976472;28;20207;-64
2021/09/23 01:31:50;;;;;;;2.90;2.70;;;;;;;22.04;83.32;98284.38;4994555;28;20215;-66
2021/09/23 01:34:17;;;;;;;3.30;2.70;;;;;;;22.05;83.52;98282.72;4975940;28;20226;-66
2021/09/23 01:36:44;;;;;;;2.70;2.50;;;;;;;22.00;83.49;98272.28;5003522;28;20219;-65
2021/09/23 01:39:15;;;;;;;3.90;3.13;;;;;;;21.94;83.36;98266.94;4991555;28;20578;-65
2021/09/23 01:41:42;;;;;;;3.03;2.77;;;;;;;21.97;83.88;98264.50;4990168;28;20199;-65
2021/09/23 01:44:08;;;;;;;2.73;2.53;;;;;;;22.01;83.32;98271.47;4985557;28;20199;-66
2021/09/23 01:46:35;;;;;;;3.13;2.93;;;;;;;22.02;83.61;98273.19;4993202;28;20219;-65
2021/09/23 01:49:02;;;;;;;2.73;2.53;;;;;;;22.01;83.49;98268.91;4992131;28;21044;-67
2021/09/23 01:51:28;;;;;;;2.97;2.77;;;;;;;22.00;83.46;98264.59;4976001;28;20219;-64
2021/09/23 01:53:55;;;;;;;3.00;2.80;;;;;;;22.01;83.69;98268.03;5003754;28;20630;-66
2021/09/23 01:56:22;;;;;;;2.90;2.60;;;;;;;22.00;83.87;98264.59;4995361;28;20229;-66
2021/09/23 01:58:48;;;;;;;3.10;2.90;;;;;;;21.95;83.33;98253.31;5007091;28;20211;-65
2021/09/23 02:01:15;;;;;;;2.97;2.77;;;;;;;21.96;83.82;98260.16;4980299;28;20200;-65
2021/09/23 02:03:42;;;;;;;3.20;2.83;;;;;;;21.98;83.76;98258.53;4996473;28;20443;-66
2021/09/23 02:06:09;;;;;;;3.30;3.00;;;;;;;21.95;83.85;98252.41;4996446;28;20238;-65
2021/09/23 02:08:36;;;;;;;3.10;2.90;;;;;;;21.97;83.72;98259.38;4978966;28;20583;-64
2021/09/23 02:11:05;;;;;;;3.07;2.87;;;;;;;21.98;83.72;98257.66;5006698;28;20229;-67
2021/09/23 02:13:32;;;;;;;2.90;2.70;;;;;;;22.00;83.72;98261.16;4994799;28;20672;-66
2021/09/23 02:15:58;;;;;;;2.97;2.77;;;;;;;22.00;83.54;98259.50;5005965;28;20226;-65
2021/09/23 02:18:25;;;;;;;2.87;2.60;;;;;;;22.00;83.71;98259.50;4995733;28;20289;-66
2021/09/23 02:20:52;;;;;;;2.70;2.50;;;;;;;22.01;83.62;98261.22;4997111;28;20207;-66
2021/09/23 02:23:18;;;;;;;3.20;2.90;;;;;;;21.96;83.72;98242.25;5001078;28;20206;-66
2021/09/23 02:25:45;;;;;;;2.87;2.67;;;;;;;22.00;83.59;98248.38;4985746;28;20223;-65
2021/09/23 02:28:12;;;;;;;3.67;3.37;;;;;;;22.01;83.27;98248.44;4995817;28;20202;-66
2021/09/23 02:30:38;;;;;;;2.67;2.47;;;;;;;21.98;83.73;98239.75;4996808;28;20203;-66
2021/09/23 02:33:05;;;;;;;2.93;2.73;;;;;;;21.94;83.26;98232.78;4994348;28;20222;-65
2021/09/23 02:35:31;;;;;;;3.00;2.70;;;;;;;22.02;83.19;98237.38;5000535;28;20202;-65
2021/09/23 02:37:58;;;;;;;3.20;2.90;;;;;;;22.02;83.45;98239.06;4996917;28;20202;-65
2021/09/23 02:40:25;;;;;;;2.77;2.57;;;;;;;22.02;83.36;98228.84;4996002;28;20198;-67
2021/09/23 02:42:51;;;;;;;2.67;2.47;;;;;;;22.03;83.58;98238.25;5000919;28;20199;-65
2021/09/23 02:45:18;;;;;;;3.03;2.83;;;;;;;22.00;83.32;98228.78;4995380;28;20616;-66
2021/09/23 02:47:45;;;;;;;3.40;3.10;;;;;;;22.02;83.28;98237.38;4996278;28;20272;-65
2021/09/23 02:50:11;;;;;;;3.17;2.87;;;;;;;22.02;83.37;98236.50;4995271;28;20252;-66
2021/09/23 02:52:38;;;;;;;3.33;3.03;;;;;;;21.66;83.30;98172.81;5001660;28;20222;-65
2021/09/23 02:55:05;;;;;;;3.23;2.93;;;;;;;22.02;83.24;98234.81;4999306;28;20633;-66
2021/09/23 02:57:31;;;;;;;3.03;2.80;;;;;;;22.02;83.11;98229.69;5001748;28;20228;-67
2021/09/23 02:59:58;;;;;;;2.70;2.50;;;;;;;22.01;83.39;98220.28;4998907;28;20237;-66
2021/09/23 03:02:25;;;;;;;2.93;2.73;;;;;;;21.98;83.86;98211.59;4993561;28;20195;-66
2021/09/23 03:04:52;;;;;;;3.07;2.77;;;;;;;22.02;83.33;98214.31;4994043;28;20257;-65
2021/09/23 03:07:19;;;;;;;2.93;2.73;;;;;;;21.72;83.41;98156.81;5024283;22;20761;-64
2021/09/23 03:09:45;;;;;;;3.00;2.80;;;;;;;22.02;83.08;98204.09;5008100;28;20571;-65
2021/09/23 03:12:12;;;;;;;2.67;2.47;;;;;;;22.03;83.06;98200.72;5000567;28;20241;-64
2021/09/23 03:14:39;;;;;;;2.90;2.70;;;;;;;22.02;83.63;98198.13;5003969;28;20206;-64
2021/09/23 03:17:05;;;;;;;2.93;2.73;;;;;;;22.03;83.13;98202.41;5003684;28;20715;-64
2021/09/23 03:19:33;;;;;;;2.97;2.73;;;;;;;22.03;83.33;98190.50;5006647;28;20225;-64
2021/09/23 03:21:59;;;;;;;2.60;2.40;;;;;;;22.03;83.21;98192.16;5010364;28;20553;-65
2021/09/23 03:24:26;;;;;;;2.87;2.67;;;;;;;22.02;83.28;98181.06;5011307;28;20631;-64
2021/09/23 03:26:53;;;;;;;2.87;2.67;;;;;;;22.04;83.14;98183.66;5010604;28;20226;-64
2021/09/23 03:29:19;;;;;;;2.97;2.77;;;;;;;22.02;83.22;98175.94;5011392;28;20210;-64
2021/09/23 03:31:46;;;;;;;3.00;2.73;;;;;;;22.02;83.24;98177.63;5011081;28;20230;-64
2021/09/23 03:34:13;;;;;;;3.13;2.87;;;;;;;22.02;82.99;98169.97;5011030;28;20229;-64
2021/09/23 03:36:39;;;;;;;3.03;2.73;;;;;;;22.01;83.27;98163.97;5010927;28;20218;-64
2021/09/23 03:39:06;;;;;;;2.93;2.73;;;;;;;22.01;83.16;98163.97;5009377;28;20205;-63
2021/09/23 03:41:33;;;;;;;3.27;2.70;;;;;;;22.00;83.38;98158.78;5009618;28;20204;-64
2021/09/23 03:44:00;;;;;;;2.67;2.47;;;;;;;21.99;83.16;98163.03;5010941;28;20202;-64
2021/09/23 03:46:27;;;;;;;2.70;2.50;;;;;;;21.99;83.51;98162.16;5010995;28;20226;-64
2021/09/23 03:48:54;;;;;;;3.20;2.90;;;;;;;21.99;83.26;98157.03;5010091;28;20586;-64
2021/09/23 03:51:20;;;;;;;2.30;2.20;;;;;;;21.99;83.49;98146.81;5010800;28;20250;-64
2021/09/23 03:53:48;;;;;;;3.53;2.50;;;;;;;21.99;83.24;98136.56;5010380;28;20626;-64
2021/09/23 03:56:15;;;;;;;2.80;2.60;;;;;;;21.98;83.41;98137.38;5010667;28;20260;-64
2021/09/23 03:58:42;;;;;;;3.00;2.70;;;;;;;21.99;83.29;98139.13;5010163;28;20206;-64
2021/09/23 04:01:09;;;;;;;3.03;2.83;;;;;;;21.99;83.25;98141.69;5009525;28;20739;-64
2021/09/23 04:03:37;;;;;;;2.93;2.67;;;;;;;21.98;83.36;98140.81;5010339;28;20205;-64
2021/09/23 04:06:04;;;;;;;2.70;2.50;;;;;;;21.98;83.44;98135.69;5010606;28;20609;-64
2021/09/23 04:08:31;;;;;;;3.20;2.90;;;;;;;21.99;82.68;98134.88;5010244;28;20202;-65
2021/09/23 04:10:57;;;;;;;2.73;2.53;;;;;;;21.99;82.95;98136.56;5010138;28;20214;-64
2021/09/23 04:13:24;;;;;;;3.07;2.77;;;;;;;22.00;83.35;98128.06;5010143;28;20573;-64
2021/09/23 04:15:50;;;;;;;2.70;2.50;;;;;;;21.99;83.80;98126.34;5009579;28;20607;-64
2021/09/23 04:18:18;;;;;;;2.60;2.40;;;;;;;21.99;83.08;98123.78;5010168;28;20206;-64
2021/09/23 04:20:45;;;;;;;2.60;2.40;;;;;;;21.98;83.16;98128.00;5009779;28;20213;-64
2021/09/23 04:23:12;;;;;;;2.87;2.67;;;;;;;21.99;82.95;98129.75;5010211;28;20203;-64
2021/09/23 04:25:38;;;;;;;2.60;2.40;;;;;;;22.00;83.06;98133.19;5010141;28;20741;-64
2021/09/23 04:28:05;;;;;;;3.00;2.70;;;;;;;22.00;83.09;98136.63;5009914;28;20703;-64
2021/09/23 04:30:32;;;;;;;3.13;2.83;;;;;;;22.01;83.26;98129.81;5010051;28;20628;-64
2021/09/23 04:32:59;;;;;;;2.60;2.40;;;;;;;22.00;83.09;98131.50;5008815;28;20214;-64
2021/09/23 04:35:29;;;;;;;2.93;2.73;;;;;;;22.01;83.15;98127.25;5010038;28;20202;-64
2021/09/23 04:37:55;;;;;;;8.00;2.83;;;;;;;22.01;83.45;98129.81;5009933;28;20218;-64
2021/09/23 04:40:22;;;;;;;2.80;2.60;;;;;;;22.01;82.91;98123.00;5010011;28;20276;-64
2021/09/23 04:42:49;;;;;;;3.17;2.87;;;;;;;22.01;83.12;98115.31;5010302;28;20202;-64
2021/09/23 04:45:15;;;;;;;2.87;2.67;;;;;;;22.01;83.17;98110.22;5008502;28;20320;-64
2021/09/23 04:47:42;;;;;;;2.70;2.50;;;;;;;22.01;82.95;98112.75;5009503;28;20291;-64
2021/09/23 04:50:09;;;;;;;2.57;2.37;;;;;;;22.02;82.90;98114.50;5009979;28;20202;-64
2021/09/23 04:52:35;;;;;;;2.73;2.53;;;;;;;22.02;83.13;98100.84;5010140;28;20613;-64
2021/09/23 04:55:03;;;;;;;2.80;2.60;;;;;;;22.02;83.04;98100.84;5010046;28;20206;-64
2021/09/23 04:57:33;;;;;;;2.63;2.43;;;;;;;22.03;83.12;98092.34;5009442;28;20222;-64
2021/09/23 05:00:03;;;;;;;2.70;2.50;;;;;;;22.02;82.82;98088.06;5010025;28;20268;-64
2021/09/23 05:02:31;;;;;;;2.87;2.67;;;;;;;22.03;82.80;98083.00;5008406;28;20190;-64
2021/09/23 05:04:58;;;;;;;2.80;2.60;;;;;;;22.03;82.79;98082.09;5008911;28;20201;-64
2021/09/23 05:07:25;;;;;;;2.70;2.50;;;;;;;22.03;82.89;98072.75;5009318;28;20234;-64
2021/09/23 05:09:52;;;;;;;2.93;2.57;;;;;;;22.03;82.68;98070.19;5009808;28;20202;-64
2021/09/23 05:12:18;;;;;;;4.00;2.63;;;;;;;22.04;82.78;98068.47;5008844;28;20728;-64
2021/09/23 05:14:45;;;;;;;3.07;2.70;;;;;;;21.12;82.69;97917.59;5009939;28;20301;-65
2021/09/23 05:17:12;;;;;;;2.60;2.40;;;;;;;22.03;83.04;98079.53;5009045;28;20226;-64
2021/09/23 05:19:39;;;;;;;3.43;2.37;;;;;;;22.03;82.57;98084.66;5009677;28;20203;-64
2021/09/23 05:22:05;;;;;;;2.57;2.37;;;;;;;22.03;83.43;98077.00;5009538;28;20191;-64
2021/09/23 05:24:32;;;;;;;2.70;2.50;;;;;;;22.03;82.93;98084.66;5009670;28;20256;-64
2021/09/23 05:26:58;;;;;;;2.80;2.60;;;;;;;22.02;82.94;98088.06;5008051;28;20225;-64
2021/09/23 05:29:25;;;;;;;2.60;2.40;;;;;;;22.02;83.08;98091.47;5010907;28;20213;-64
2021/09/23 05:31:52;;;;;;;2.80;2.60;;;;;;;22.01;82.82;98082.06;5013011;28;20237;-64
2021/09/23 05:34:18;;;;;;;3.17;2.27;;;;;;;22.01;83.12;98082.06;5013566;28;20202;-64
2021/09/23 05:36:45;;;;;;;2.30;2.10;;;;;;;22.01;82.70;98084.63;5013091;28;20269;-64
2021/09/23 05:39:12;;;;;;;3.40;2.87;;;;;;;22.01;82.95;98086.28;5013197;28;20203;-64
2021/09/23 05:41:41;;;;;;;2.80;2.50;;;;;;;22.01;83.08;98088.84;5013270;28;20203;-64
2021/09/23 05:44:08;;;;;;;3.03;2.63;;;;;;;22.00;83.14;98088.00;5006361;28;20202;-64
2021/09/23 05:46:40;;;;;;;2.60;2.40;;;;;;;22.01;83.06;98086.28;5012997;28;20218;-64
2021/09/23 05:49:06;;;;;;;3.30;2.97;;;;;;;22.02;82.92;98082.94;5012894;28;20210;-64
2021/09/23 05:51:33;;;;;;;3.80;2.50;;;;;;;22.01;82.91;98084.63;5013122;28;20783;-64
2021/09/23 05:54:00;;;;;;;2.87;2.57;;;;;;;21.98;83.10;98078.50;5015914;28;20222;-63
2021/09/23 05:56:27;;;;;;;2.80;2.60;;;;;;;21.97;82.75;98071.66;5013829;28;20233;-63
2021/09/23 05:58:53;;;;;;;2.90;2.70;;;;;;;22.02;82.38;98076.09;5013894;28;20276;-62
2021/09/23 06:01:20;;;;;;;3.70;2.77;;;;;;;22.02;82.63;98072.69;5015613;28;20206;-63
2021/09/23 06:03:51;;;;;;;2.80;2.60;;;;;;;22.03;82.86;98077.00;5015672;28;20198;-63
2021/09/23 06:06:18;;;;;;;2.67;2.47;;;;;;;21.98;82.77;98065.69;5015172;28;20603;-63
2021/09/23 06:08:45;;;;;;;2.20;2.10;;;;;;;21.99;82.71;98063.19;4999191;28;20288;-63
2021/09/23 06:11:11;;;;;;;3.03;2.70;;;;;;;22.03;82.53;98070.19;5013894;28;20675;-62
2021/09/23 06:13:38;;;;;;;2.73;2.53;;;;;;;22.03;82.98;98071.88;5014247;28;20253;-63
2021/09/23 06:16:05;;;;;;;2.70;2.50;;;;;;;21.68;82.57;98001.47;4997450;28;20718;-63
2021/09/23 06:18:32;;;;;;;2.47;2.07;;;;;;;22.04;82.58;98065.91;5013827;28;20206;-63
2021/09/23 06:20:59;;;;;;;2.40;2.20;;;;;;;21.99;82.51;98058.06;5012761;28;20214;-63
2021/09/23 06:23:25;;;;;;;2.60;2.40;;;;;;;22.03;82.34;98065.06;4979205;28;20207;-63
2021/09/23 06:25:53;;;;;;;3.10;2.50;;;;;;;21.89;82.48;98040.66;4996968;28;20206;-63
2021/09/23 06:28:20;;;;;;;2.83;2.53;;;;;;;22.04;82.20;98066.81;4983608;28;20198;-63
2021/09/23 06:30:46;;;;;;;3.80;2.53;;;;;;;22.04;82.50;98066.81;5013126;28;20205;-63
2021/09/23 06:33:13;;;;;;;2.87;2.60;;;;;;;22.04;82.47;98060.81;5013467;28;20222;-63
2021/09/23 06:35:40;;;;;;;2.53;2.33;;;;;;;22.04;82.71;98065.91;5013374;28;20225;-63
2021/09/23 06:38:07;;;;;;;2.60;2.40;;;;;;;22.04;82.92;98069.38;5008482;28;20226;-63
2021/09/23 06:40:33;;;;;;;4.03;2.50;;;;;;;22.05;82.35;98070.25;5014222;28;20664;-63
2021/09/23 06:43:00;;;;;;;2.60;2.40;;;;;;;22.05;82.37;98062.56;5014796;28;20221;-63
2021/09/23 06:45:27;;;;;;;3.10;2.60;;;;;;;22.06;82.40;98054.06;5014375;28;20205;-63
2021/09/23 06:47:53;;;;;;;2.77;2.50;;;;;;;22.05;82.37;98052.31;5014046;28;20268;-63
2021/09/23 06:50:20;;;;;;;3.10;2.50;;;;;;;22.06;82.75;98046.38;5013305;28;20208;-63
2021/09/23 06:52:47;;;;;;;2.63;2.43;;;;;;;22.05;82.25;98036.97;5014284;28;20225;-63
2021/09/23 06:55:14;;;;;;;2.97;2.77;;;;;;;22.05;82.70;98044.66;5014712;28;20202;-63
2021/09/23 06:57:40;;;;;;;3.80;2.60;;;;;;;22.05;82.36;98044.66;5014221;28;20238;-63
2021/09/23 07:00:07;;;;;;;2.60;2.40;;;;;;;22.06;82.49;98047.25;5008650;28;20217;-63
2021/09/23 07:02:34;;;;;;;2.93;2.73;;;;;;;22.06;82.79;98044.72;5012970;28;20284;-63
2021/09/23 07:05:01;;;;;;;2.80;2.50;;;;;;;22.06;82.31;98044.72;5014161;28;20352;-63
2021/09/23 07:07:28;;;;;;;2.60;2.40;;;;;;;22.05;82.31;98034.41;5013098;28;20253;-63
2021/09/23 07:09:54;;;;;;;2.90;2.70;;;;;;;22.06;82.44;98038.69;5014210;28;20198;-63
2021/09/23 07:12:21;;;;;;;2.83;2.63;;;;;;;22.04;82.27;98036.09;5013177;28;20198;-63
2021/09/23 07:14:49;;;;;;;2.50;2.30;;;;;;;22.04;82.60;98045.44;5014450;28;20198;-63
2021/09/23 07:17:15;;;;;;;2.97;2.67;;;;;;;22.03;82.57;98044.59;5013442;28;20233;-63
2021/09/23 07:19:42;;;;;;;3.00;2.80;;;;;;;22.04;82.27;98040.31;5013818;28;20489;-63
2021/09/23 07:22:09;;;;;;;2.77;2.57;;;;;;;22.03;82.59;98046.28;5013961;28;20207;-63
2021/09/23 07:24:36;;;;;;;2.70;2.50;;;;;;;22.03;82.43;98054.84;5013726;28;20273;-63
2021/09/23 07:27:03;;;;;;;3.23;2.93;;;;;;;22.02;82.59;98045.38;5013124;28;20605;-62
2021/09/23 07:29:30;;;;;;;2.40;2.30;;;;;;;22.01;82.59;98051.34;5013862;28;20210;-63
2021/09/23 07:31:56;;;;;;;2.70;2.50;;;;;;;22.01;82.79;98053.91;5013252;28;20206;-63
2021/09/23 07:34:23;;;;;;;2.97;2.67;;;;;;;22.02;82.72;98054.78;5012284;28;20594;-63
2021/09/23 07:36:50;;;;;;;2.60;2.40;;;;;;;22.02;82.53;98060.75;5012981;28;20218;-61
2021/09/23 07:39:16;;;;;;;3.13;2.83;;;;;;;22.01;82.62;98056.47;5012166;28;20457;-63
2021/09/23 07:41:44;;;;;;;2.90;2.60;;;;;;;22.02;82.64;98047.94;5013379;28;20206;-63
2021/09/23 07:44:12;;;;;;;2.67;2.47;;;;;;;22.02;82.55;98037.72;5013683;28;20216;-63
2021/09/23 07:46:39;;;;;;;2.50;2.30;;;;;;;22.03;82.56;98034.34;5011880;28;20593;-63
2021/09/23 07:49:05;;;;;;;2.93;2.73;;;;;;;22.02;82.67;98027.47;5012705;28;20194;-63
2021/09/23 07:51:33;;;;;;;2.97;2.70;;;;;;;22.02;82.52;98017.22;5012923;28;20253;-63
2021/09/23 07:53:59;;;;;;;2.90;2.70;;;;;;;22.02;82.37;98012.13;5011419;28;20222;-63
2021/09/23 07:56:26;;;;;;;2.97;2.50;;;;;;;22.03;82.54;98018.13;5012985;28;20226;-63
2021/09/23 07:58:52;;;;;;;2.97;2.67;;;;;;;22.03;82.57;98015.56;5012679;28;20636;-63
2021/09/23 08:01:19;;;;;;;2.70;2.50;;;;;;;22.02;82.30;98017.22;5013220;28;20207;-61
2021/09/23 08:03:46;;;;;;;5.10;2.87;;;;;;;22.03;82.29;98013.00;5012370;28;20194;-63
2021/09/23 08:06:14;;;;;;;2.97;2.67;;;;;;;22.04;82.35;98022.41;5012947;28;20241;-63
2021/09/23 08:08:40;;;;;;;2.90;2.70;;;;;;;22.04;82.43;98012.16;5012555;28;20202;-63
2021/09/23 08:11:07;;;;;;;3.10;2.80;;;;;;;22.03;82.27;98013.88;5008350;28;20221;-63
2021/09/23 08:13:33;;;;;;;3.70;2.50;;;;;;;22.02;82.39;98014.69;5019487;28;20765;-63
2021/09/23 08:16:00;;;;;;;3.10;2.90;;;;;;;22.04;82.55;98017.28;5020933;28;20289;-63
2021/09/23 08:18:27;;;;;;;3.27;2.97;;;;;;;22.05;82.34;98021.63;5020688;28;20202;-64
2021/09/23 08:20:54;;;;;;;2.73;2.53;;;;;;;22.04;82.20;98012.16;5020447;28;20198;-63
2021/09/23 08:23:20;;;;;;;2.80;2.60;;;;;;;22.04;82.74;98007.94;5020644;28;20199;-62
2021/09/23 08:25:49;;;;;;;2.97;2.77;;;;;;;22.04;82.62;98010.50;5018888;28;20240;-62
2021/09/23 08:28:15;;;;;;;2.60;2.40;;;;;;;22.05;82.18;98011.38;5021795;28;20229;-63
2021/09/23 08:30:43;;;;;;;2.77;2.57;;;;;;;22.04;82.29;97999.38;5018432;28;20678;-63
2021/09/23 08:33:10;;;;;;;2.70;2.50;;;;;;;22.05;82.29;98003.69;5018264;28;20632;-63
2021/09/23 08:35:37;;;;;;;2.57;2.37;;;;;;;22.05;82.37;98001.13;5019414;28;20202;-63
2021/09/23 08:38:03;;;;;;;2.80;2.60;;;;;;;22.05;82.32;97998.56;5018143;28;20218;-63
2021/09/23 08:40:30;;;;;;;2.60;2.40;;;;;;;22.04;82.56;97990.03;5018401;28;20240;-63
2021/09/23 08:42:57;;;;;;;3.20;2.90;;;;;;;22.05;82.43;97988.34;5018673;28;20194;-63
2021/09/23 08:45:24;;;;;;;2.80;2.60;;;;;;;22.04;82.29;97987.47;5017943;28;20194;-63
2021/09/23 08:47:50;;;;;;;2.87;2.57;;;;;;;22.06;82.34;98013.09;5018318;28;20244;-63
2021/09/23 08:50:17;;;;;;;2.80;2.60;;;;;;;22.06;82.17;98005.44;5017959;28;20210;-63
2021/09/23 08:52:44;;;;;;;2.57;2.37;;;;;;;22.04;82.12;98000.25;5018658;28;20202;-63
2021/09/23 08:55:23;;;;;;;2.77;2.57;;;;;;;22.06;82.40;97987.50;5015975;28;20209;-63
2021/09/23 08:57:50;;;;;;;2.80;2.60;;;;;;;22.05;82.29;97988.34;5016159;28;20218;-63
2021/09/23 09:00:17;;;;;;;2.40;2.20;;;;;;;22.05;82.27;97996.00;5018363;28;20206;-63
2021/09/23 09:02:44;;;;;;;3.00;2.80;;;;;;;22.04;82.14;97995.13;5016877;28;20194;-63
2021/09/23 09:05:16;;;;;;;2.80;2.60;;;;;;;22.04;82.30;97991.69;5007491;28;20213;-63
2021/09/23 09:07:43;;;;;;;2.87;2.67;;;;;;;21.77;82.26;97945.56;5038887;22;20252;-70
2021/09/23 09:10:10;;;;;;;3.00;2.53;;;;;;;22.03;82.20;97984.84;5005694;28;20206;-70
2021/09/23 09:12:39;;;;;;;2.77;2.57;;;;;;;22.02;82.33;97986.53;5019687;28;20244;-69
2021/09/23 09:15:06;;;;;;;2.77;2.57;;;;;;;21.91;82.52;97963.94;5020218;28;20202;-69
2021/09/23 09:17:36;;;;;;;2.47;2.30;;;;;;;21.95;82.37;97966.66;4986995;28;20598;-71
2021/09/23 09:20:05;;;;;;;2.93;2.73;;;;;;;21.86;82.30;97939.88;5014021;28;20198;-70
2021/09/23 09:22:32;;;;;;;2.77;2.57;;;;;;;21.79;82.54;97925.13;5024234;28;20280;-70
2021/09/23 09:25:00;;;;;;;2.70;2.50;;;;;;;22.01;82.26;97969.44;5031282;28;20924;-70
2021/09/23 09:27:34;;;;;;;3.10;2.80;;;;;;;21.89;82.31;97937.41;5020419;28;20226;-71
2021/09/23 09:30:07;;;;;;;2.87;2.67;;;;;;;21.68;82.53;97902.56;5018840;28;20250;-71
2021/09/23 09:32:50;;;;;;;2.70;2.50;;;;;;;21.94;82.50;97946.13;5019537;28;20206;-70
2021/09/23 09:35:19;;;;;;;2.83;2.63;;;;;;;22.03;82.64;97977.16;5014440;28;20273;-70
2021/09/23 09:37:48;;;;;;;3.10;2.90;;;;;;;22.02;82.25;97963.50;5026776;28;20226;-71
2021/09/23 09:40:17;;;;;;;2.67;2.47;;;;;;;21.94;82.47;97951.25;5029433;28;20202;-71
2021/09/23 09:42:45;;;;;;;2.67;2.47;;;;;;;21.93;82.27;97932.47;5033884;28;20636;-69
2021/09/23 09:45:17;;;;;;;2.77;2.57;;;;;;;22.01;82.46;97941.28;5046357;28;20252;-70
2021/09/23 09:47:48;;;;;;;2.83;2.63;;;;;;;22.03;82.30;97941.34;5003463;28;20763;-68
2021/09/23 09:50:16;;;;;;;2.93;2.63;;;;;;;22.02;82.33;97937.88;5019510;28;20318;-70
2021/09/23 09:53:09;;;;;;;2.70;2.50;;;;;;;22.03;82.23;97941.34;5025380;28;20242;-70
2021/09/23 09:55:39;;;;;;;4.43;2.80;;;;;;;21.94;82.45;97921.44;5017689;28;20256;-70
2021/09/23 09:58:06;;;;;;;4.03;2.60;;;;;;;21.95;82.22;97917.16;5028080;28;20225;-70
2021/09/23 10:00:33;;;;;;;2.80;2.60;;;;;;;21.96;82.37;97913.81;4999456;28;20203;-72
2021/09/23 10:03:00;;;;;;;2.87;2.47;;;;;;;21.83;82.20;97880.91;5020360;28;20448;-70
2021/09/23 10:05:27;;;;;;;2.90;2.60;;;;;;;21.94;82.42;97900.06;5012508;28;20203;-70
2021/09/23 10:07:55;;;;;;;2.80;2.60;;;;;;;22.03;82.20;97908.94;5021545;28;20226;-70
2021/09/23 10:10:28;;;;;;;2.37;2.27;;;;;;;21.85;82.11;97867.38;5029109;28;20220;-69
2021/09/23 10:12:56;;;;;;;2.70;2.50;;;;;;;21.83;82.38;97860.44;5004394;28;20206;-70
2021/09/23 10:15:23;;;;;;;3.03;2.73;;;;;;;22.00;82.25;97887.47;5019140;28;20262;-70
2021/09/23 10:17:51;;;;;;;2.80;2.60;;;;;;;21.63;82.15;97823.94;5014217;28;20596;-70
2021/09/23 10:20:22;;;;;;;2.63;2.40;;;;;;;22.00;82.29;97883.25;5031085;28;20677;-70
2021/09/23 10:22:49;;;;;;;2.50;2.30;;;;;;;21.90;82.29;97862.41;4990408;28;20219;-70
2021/09/23 10:25:24;;;;;;;2.87;2.67;;;;;;;22.04;82.27;97891.88;5018764;28;20197;-70
2021/09/23 10:30:28;;;;;;;2.67;2.47;;;;;;;21.94;82.12;97872.81;5006820;28;20210;-69
2021/09/23 10:32:56;;;;;;;2.60;2.40;;;;;;;22.05;82.08;97888.50;5019323;28;20240;-70
2021/09/23 10:35:22;;;;;;;2.40;2.30;;;;;;;21.97;82.37;97872.91;5023763;28;20198;-69
2021/09/23 10:38:01;;;;;;;2.80;2.60;;;;;;;21.96;82.17;97866.03;4999493;28;20275;-70
2021/09/23 10:40:29;;;;;;;2.60;2.40;;;;;;;21.89;82.04;97853.84;5005295;28;20229;-70
2021/09/23 10:43:01;;;;;;;2.63;2.43;;;;;;;21.80;82.34;97838.22;5025096;28;20197;-70
2021/09/23 10:45:27;;;;;;;2.50;2.30;;;;;;;22.04;82.35;97877.41;5026717;28;20199;-70
2021/09/23 10:47:59;;;;;;;2.37;2.23;;;;;;;22.02;82.34;97873.91;5003880;28;20590;-69
2021/09/23 10:50:28;;;;;;;2.53;2.33;;;;;;;21.75;82.30;97823.50;5041178;28;20202;-70
2021/09/23 10:52:56;;;;;;;2.27;2.17;;;;;;;21.88;82.09;97844.47;5010754;28;20230;-70
2021/09/23 10:55:26;;;;;;;2.73;2.53;;;;;;;21.97;82.41;97862.66;5004558;28;20585;-70
2021/09/23 10:57:53;;;;;;;2.70;2.50;;;;;;;21.93;82.33;97850.56;5011238;28;20233;-70
2021/09/23 11:00:25;;;;;;;2.57;2.37;;;;;;;22.04;82.41;97871.41;5016338;28;20205;-70
2021/09/23 11:02:52;;;;;;;2.70;2.50;;;;;;;22.03;82.43;97865.44;5019668;28;20209;-70
2021/09/23 11:05:20;;;;;;;2.50;2.30;;;;;;;22.00;82.37;97856.78;5031455;28;20202;-70
2021/09/23 11:07:47;;;;;;;2.60;2.40;;;;;;;21.91;82.34;97836.88;5019322;28;20238;-70
2021/09/23 11:10:18;;;;;;;2.60;2.40;;;;;;;22.03;82.37;97862.00;5027992;28;20251;-70
2021/09/23 11:12:55;;;;;;;2.20;2.10;;;;;;;21.75;82.40;97815.81;5017338;28;20206;-69
2021/09/23 11:15:24;;;;;;;2.67;2.47;;;;;;;21.77;82.50;97820.19;5018113;28;20222;-69
2021/09/23 11:17:50;;;;;;;2.30;2.20;;;;;;;22.01;82.42;97851.69;5028472;28;20219;-69
2021/09/23 11:20:22;;;;;;;2.63;2.37;;;;;;;21.91;82.43;97836.88;5007554;28;20212;-70
2021/09/23 11:22:53;;;;;;;2.40;2.23;;;;;;;22.02;82.38;97856.00;4988442;28;20263;-70
2021/09/23 11:25:22;;;;;;;2.40;2.20;;;;;;;21.87;82.30;97821.38;5026969;28;20201;-70
2021/09/23 11:27:49;;;;;;;2.17;2.07;;;;;;;21.69;82.23;97785.78;5001561;28;20222;-70
2021/09/23 11:30:17;;;;;;;2.80;2.60;;;;;;;21.94;82.25;97834.41;4996527;28;20224;-69
2021/09/23 11:33:11;;;;;;;2.60;2.40;;;;;;;22.02;82.38;97850.03;5007182;28;20272;-70
2021/09/23 11:35:39;;;;;;;2.50;2.30;;;;;;;21.89;82.39;97827.38;5042521;28;20232;-69
2021/09/23 11:38:07;;;;;;;2.60;2.40;;;;;;;22.01;82.55;97844.03;5022306;28;20222;-70